Time;durP1;ratioP1;P1;durP2;ratioP2;P2;SDS_P1;SDS_P2;PMS_P1;PMS_P2;Temp;Humidity;BMP_temperature;BMP_pressure;BME280_temperature;BME280_humidity;BME280_pressure;Samples;Min_cycle;Max_cycle;Signal;HPM_P1;HPM_P2
2022/01/14 00:01:52;;;;;;;4.40;1.43;;;;;;;-6.14;92.91;93305.72;4960198;28;20663;-73
2022/01/14 00:04:21;;;;;;;1.20;1.20;;;;;;;-6.15;93.64;93309.81;4961545;28;20666;-73
2022/01/14 00:06:48;;;;;;;1.47;1.47;;;;;;;-6.16;92.46;93314.66;4962987;28;20212;-73
2022/01/14 00:09:16;;;;;;;1.23;1.00;;;;;;;-6.03;91.91;93334.75;4962080;28;20563;-73
2022/01/14 00:11:48;;;;;;;2.67;2.57;;;;;;;-6.19;92.29;93331.75;4962610;28;20546;-73
2022/01/14 00:14:24;;;;;;;1.47;1.47;;;;;;;-6.27;92.40;93326.63;4962815;28;20491;-73
2022/01/14 00:16:54;;;;;;;1.03;1.03;;;;;;;-6.26;91.85;93308.66;4962542;28;20643;-73
2022/01/14 00:19:21;;;;;;;0.80;0.80;;;;;;;-6.35;92.03;93310.81;4961975;28;20607;-73
2022/01/14 00:21:48;;;;;;;1.07;1.07;;;;;;;-6.38;92.52;93293.50;4962466;28;20621;-73
2022/01/14 00:24:27;;;;;;;0.50;0.50;;;;;;;-6.40;92.81;93303.28;4962117;28;20665;-73
2022/01/14 00:32:44;;;;;;;0.73;0.73;;;;;;;-6.22;92.40;93287.44;4962099;28;20523;-73
2022/01/14 00:35:11;;;;;;;1.00;1.00;;;;;;;-6.25;92.87;93290.63;4953764;28;20658;-73
2022/01/14 00:37:38;;;;;;;0.90;0.90;;;;;;;-6.16;92.40;93295.00;4962534;28;20553;-73
2022/01/14 00:40:07;;;;;;;0.80;0.80;;;;;;;-5.99;92.44;93297.16;4962665;28;20200;-73
2022/01/14 00:42:34;;;;;;;1.33;1.33;;;;;;;-6.01;91.73;93302.81;4961950;28;20534;-73
2022/01/14 00:45:01;;;;;;;1.60;1.50;;;;;;;-6.12;92.58;93302.50;4962486;28;20563;-73
2022/01/14 00:47:29;;;;;;;0.50;0.50;;;;;;;-6.05;92.29;93308.44;4962325;28;20604;-73
2022/01/14 00:49:57;;;;;;;0.93;0.93;;;;;;;-6.15;92.47;93299.97;4962294;28;20691;-73
2022/01/14 00:52:25;;;;;;;0.80;0.80;;;;;;;-6.07;92.02;93301.00;4933835;28;20539;-73
2022/01/14 00:54:53;;;;;;;0.90;0.90;;;;;;;-6.06;91.69;93300.22;4943509;28;20201;-73
2022/01/14 00:59:13;;;;;;;0.93;0.93;;;;;;;-5.96;91.30;93297.25;4943265;28;20605;-73
2022/01/14 01:00:13;;;;;;;0.70;0.70;;;;;;;-6.03;91.50;93279.81;4943435;28;20204;-73
2022/01/14 01:02:41;;;;;;;1.13;1.13;;;;;;;-5.83;90.85;93308.25;4943091;28;20636;-73
2022/01/14 01:05:12;;;;;;;0.70;0.70;;;;;;;-5.99;90.60;93297.16;4943477;28;20565;-73
2022/01/14 01:07:40;;;;;;;3.10;1.23;;;;;;;-5.91;90.34;93310.50;4942803;28;20826;-73
2022/01/14 01:10:09;;;;;;;1.20;1.20;;;;;;;-5.85;90.12;93324.56;4962043;28;20497;-73
2022/01/14 01:12:46;;;;;;;1.67;1.67;;;;;;;-5.83;89.94;93325.47;4959962;28;20615;-73
2022/01/14 01:15:16;;;;;;;0.73;0.73;;;;;;;-5.95;90.42;93307.91;4958932;28;20695;-73
2022/01/14 01:17:44;;;;;;;1.57;1.50;;;;;;;-6.12;90.18;93319.72;4959341;28;20282;-73
2022/01/14 01:20:17;;;;;;;2.03;1.93;;;;;;;-6.05;90.51;93318.28;4959150;28;20318;-73
2022/01/14 01:22:46;;;;;;;2.67;2.07;;;;;;;-6.26;92.83;93308.66;4958117;28;20282;-73
2022/01/14 01:25:15;;;;;;;1.30;1.30;;;;;;;-6.12;91.94;93313.97;4958821;28;20267;-73
2022/01/14 01:27:44;;;;;;;1.60;1.57;;;;;;;-6.14;92.59;93298.34;4959114;28;20624;-73
2022/01/14 01:30:16;;;;;;;1.70;1.67;;;;;;;-6.01;91.42;93311.03;4957582;28;20302;-73
2022/01/14 01:32:48;;;;;;;1.00;1.00;;;;;;;-5.93;91.12;93311.25;4958415;28;20453;-73
2022/01/14 01:35:17;;;;;;;1.07;1.07;;;;;;;-6.14;92.08;93295.88;4950891;28;20554;-73
2022/01/14 01:37:45;;;;;;;1.70;1.70;;;;;;;-6.20;92.32;93296.53;4958303;28;20524;-73
2022/01/14 01:40:15;;;;;;;1.57;1.57;;;;;;;-6.10;90.91;93290.25;4958657;28;20200;-73
2022/01/14 01:42:45;;;;;;;1.47;1.47;;;;;;;-6.30;92.57;93273.28;4958646;28;20483;-73
2022/01/14 01:45:15;;;;;;;1.03;1.03;;;;;;;-6.23;92.57;93283.31;4958562;28;20593;-73
2022/01/14 01:47:44;;;;;;;1.23;1.13;;;;;;;-6.21;91.23;93280.13;4957785;28;20563;-73
2022/01/14 01:50:13;;;;;;;0.90;0.90;;;;;;;-6.37;92.06;93280.44;4957540;28;20504;-73
2022/01/14 01:52:42;;;;;;;0.87;0.87;;;;;;;-6.50;93.00;93266.09;4957273;28;20532;-73
2022/01/14 01:55:10;;;;;;;1.67;1.67;;;;;;;-6.34;92.37;93271.53;4957815;28;20590;-73
2022/01/14 01:57:38;;;;;;;1.30;1.30;;;;;;;-6.28;92.35;93252.06;4958239;28;20207;-73
2022/01/14 02:00:06;;;;;;;0.60;0.60;;;;;;;-6.17;92.26;93258.91;4958015;28;20471;-73
2022/01/14 02:02:36;;;;;;;1.20;1.20;;;;;;;-6.42;92.04;93245.88;4957596;28;20639;-73
2022/01/14 02:05:05;;;;;;;0.87;0.87;;;;;;;-6.27;91.39;93267.63;4957298;28;20588;-73
2022/01/14 02:07:33;;;;;;;0.83;0.83;;;;;;;-6.35;91.24;93249.34;4958263;28;20480;-73
2022/01/14 02:10:02;;;;;;;0.80;0.80;;;;;;;-6.31;91.63;93248.69;4957897;28;20413;-73
2022/01/14 02:12:36;;;;;;;0.93;0.93;;;;;;;-6.23;91.31;93259.56;4958509;28;20556;-73
2022/01/14 02:15:11;;;;;;;1.30;1.30;;;;;;;-6.21;91.50;93257.16;4957191;28;20231;-73
2022/01/14 02:17:52;;;;;;;1.37;1.37;;;;;;;-6.37;92.40;93244.41;4957749;28;20587;-73
2022/01/14 02:23:07;;;;;;;0.63;0.63;;;;;;;-6.23;92.14;93262.00;4957516;28;20473;-73
2022/01/14 02:25:36;;;;;;;0.80;0.80;;;;;;;-6.24;91.34;93250.50;4956743;28;20484;-73
2022/01/14 02:28:07;;;;;;;2.23;2.17;;;;;;;-6.47;91.72;93246.53;4957587;28;20595;-73
2022/01/14 02:30:35;;;;;;;0.70;0.70;;;;;;;-6.63;91.96;93230.50;4957498;28;20335;-73
2022/01/14 02:33:03;;;;;;;0.60;0.60;;;;;;;-6.82;93.38;93198.81;4957358;28;20580;-73
2022/01/14 02:35:32;;;;;;;0.50;0.50;;;;;;;-6.74;93.56;93212.97;4949799;28;20565;-73
2022/01/14 02:38:00;;;;;;;1.07;1.07;;;;;;;-6.54;92.23;93213.59;4957693;28;20656;-73
2022/01/14 02:40:28;;;;;;;0.70;0.70;;;;;;;-6.46;92.22;93203.97;4957831;28;20208;-73
2022/01/14 02:42:59;;;;;;;0.83;0.83;;;;;;;-6.32;91.72;93212.59;4957208;28;20496;-73
2022/01/14 02:45:30;;;;;;;2.00;1.03;;;;;;;-6.32;91.65;93193.78;4958275;28;20223;-73
2022/01/14 02:47:58;;;;;;;0.80;0.80;;;;;;;-6.21;90.88;93199.00;4955976;28;20656;-73
2022/01/14 02:50:26;;;;;;;1.23;1.23;;;;;;;-6.28;91.60;93197.13;4956752;28;20607;-73
2022/01/14 02:52:58;;;;;;;0.73;0.73;;;;;;;-6.24;91.60;93196.44;4956583;28;20617;-73
2022/01/14 02:55:29;;;;;;;1.27;1.27;;;;;;;-6.25;91.11;93192.28;4956816;28;20650;-73
2022/01/14 02:57:58;;;;;;;1.13;1.13;;;;;;;-6.36;91.20;93204.28;4957185;28;20583;-73
2022/01/14 03:00:29;;;;;;;0.90;0.90;;;;;;;-6.25;91.29;93203.78;4957046;28;20560;-73
2022/01/14 03:02:59;;;;;;;0.53;0.53;;;;;;;-6.23;91.32;93205.47;4937713;28;20267;-73
2022/01/14 03:05:30;;;;;;;4.07;1.23;;;;;;;-6.37;91.52;93189.50;4937714;28;20625;-73
2022/01/14 03:07:59;;;;;;;1.63;1.63;;;;;;;-6.33;91.31;93209.31;4937696;28;20501;-73
2022/01/14 03:10:26;;;;;;;0.97;0.97;;;;;;;-6.29;91.69;93197.94;4937413;28;20648;-73
2022/01/14 03:12:54;;;;;;;1.73;1.73;;;;;;;-6.28;91.81;93197.97;4938369;28;20488;-73
2022/01/14 03:15:21;;;;;;;6.60;2.00;;;;;;;-6.24;91.33;93202.97;4937934;28;20593;-73
2022/01/14 03:17:48;;;;;;;3.83;1.23;;;;;;;-6.29;91.39;93200.38;4937802;28;20494;-73
2022/01/14 03:20:40;;;;;;;1.40;1.37;;;;;;;-6.34;91.00;93190.44;4927872;28;20570;-73
2022/01/14 03:23:11;;;;;;;1.20;1.20;;;;;;;-6.40;92.61;93184.50;4939181;28;20564;-73
2022/01/14 03:25:48;;;;;;;4.03;2.23;;;;;;;-6.31;91.15;93188.03;4937537;28;20477;-73
2022/01/14 03:28:20;;;;;;;1.10;1.10;;;;;;;-6.56;92.63;93157.81;4937490;28;20477;-73
2022/01/14 03:30:48;;;;;;;11.23;1.50;;;;;;;-6.42;93.19;93163.97;4938334;28;20332;-73
2022/01/14 03:33:15;;;;;;;0.83;0.83;;;;;;;-6.44;93.20;93163.94;4937803;28;20610;-73
2022/01/14 03:35:42;;;;;;;1.30;1.30;;;;;;;-6.38;93.62;93155.91;4947833;28;20606;-73
2022/01/14 03:38:11;;;;;;;0.90;0.90;;;;;;;-6.26;91.99;93172.63;4957115;28;20719;-73
2022/01/14 03:40:39;;;;;;;1.87;1.77;;;;;;;-6.28;91.33;93166.03;4956107;28;20242;-73
2022/01/14 03:43:06;;;;;;;1.37;1.37;;;;;;;-6.33;90.92;93169.97;4956167;28;20652;-73
2022/01/14 03:45:38;;;;;;;2.70;1.07;;;;;;;-6.41;91.41;93160.72;4956444;28;20686;-73
2022/01/14 03:48:05;;;;;;;1.67;1.67;;;;;;;-6.49;91.88;93147.38;4929020;28;20594;-73
2022/01/14 03:50:33;;;;;;;4.07;2.30;;;;;;;-6.40;92.30;93143.56;4927811;28;20587;-73
2022/01/14 03:53:00;;;;;;;2.00;1.90;;;;;;;-6.47;93.33;93133.50;4927991;28;20200;-73
2022/01/14 03:55:29;;;;;;;1.00;1.00;;;;;;;-6.45;93.66;93132.75;4938573;28;20231;-73
2022/01/14 03:57:56;;;;;;;0.70;0.70;;;;;;;-6.36;92.49;93137.09;4937582;28;20552;-73
2022/01/14 04:00:23;;;;;;;4.53;1.60;;;;;;;-6.45;93.39;93125.41;4937156;28;20585;-73
2022/01/14 04:02:51;;;;;;;1.70;1.60;;;;;;;-6.60;93.38;93119.22;4938075;28;20585;-74
2022/01/14 04:05:18;;;;;;;1.43;1.43;;;;;;;-6.59;93.34;93124.16;4936931;28;20609;-73
2022/01/14 04:07:46;;;;;;;0.77;0.77;;;;;;;-6.43;92.69;93127.91;4937036;28;20200;-73
2022/01/14 04:10:13;;;;;;;0.90;0.90;;;;;;;-6.35;92.05;93124.84;4937336;28;20599;-73
2022/01/14 04:12:49;;;;;;;0.90;0.90;;;;;;;-6.33;91.80;93117.53;4937846;28;20227;-74
2022/01/14 04:18:04;;;;;;;0.70;0.70;;;;;;;-6.29;92.09;93121.72;4929370;28;20523;-73
2022/01/14 04:20:32;;;;;;;1.10;1.10;;;;;;;-6.19;91.20;93137.56;4937059;28;20200;-73
2022/01/14 04:22:59;;;;;;;0.77;0.77;;;;;;;-6.27;90.87;93130.00;4937895;28;20606;-73
2022/01/14 04:25:27;;;;;;;0.90;0.90;;;;;;;-6.39;92.27;93117.34;4937123;28;20564;-73
2022/01/14 04:27:55;;;;;;;0.83;0.83;;;;;;;-6.43;92.62;93123.00;4937456;28;20235;-73
2022/01/14 04:30:24;;;;;;;1.70;0.83;;;;;;;-6.33;92.25;93130.66;4937497;28;20574;-73
2022/01/14 04:32:52;;;;;;;1.30;1.30;;;;;;;-6.31;90.93;93131.50;4937434;28;20477;-73
2022/01/14 04:35:20;;;;;;;1.27;1.10;;;;;;;-6.53;92.17;93116.97;4946505;28;20223;-73
2022/01/14 04:37:47;;;;;;;2.10;2.00;;;;;;;-6.67;93.01;93113.28;4927431;28;20223;-73
2022/01/14 04:40:15;;;;;;;1.63;1.63;;;;;;;-6.58;92.89;93107.78;4936790;28;20644;-73
2022/01/14 04:42:43;;;;;;;2.17;1.57;;;;;;;-6.46;92.61;93106.53;4926749;28;20609;-73
2022/01/14 04:45:26;;;;;;;2.13;2.03;;;;;;;-6.60;93.28;93097.94;4938075;28;20589;-73
2022/01/14 04:47:53;;;;;;;1.53;1.43;;;;;;;-6.48;93.13;93092.53;4931014;28;20233;-73
2022/01/14 04:50:21;;;;;;;1.23;1.23;;;;;;;-6.40;92.18;93074.75;4940480;28;20239;-73
2022/01/14 04:52:49;;;;;;;1.50;1.40;;;;;;;-6.30;91.54;93088.09;4940882;28;20563;-73
2022/01/14 04:55:19;;;;;;;1.20;1.20;;;;;;;-6.27;90.98;93078.38;4940292;28;20568;-73
2022/01/14 04:57:46;;;;;;;0.70;0.70;;;;;;;-6.29;91.64;93075.88;4940674;28;20546;-73
2022/01/14 05:00:18;;;;;;;1.30;1.30;;;;;;;-6.22;91.56;93081.78;4940018;28;20295;-73
2022/01/14 05:02:45;;;;;;;2.07;2.07;;;;;;;-6.43;91.59;93049.28;4940624;28;20589;-73
2022/01/14 05:05:15;;;;;;;3.63;3.43;;;;;;;-6.20;91.08;93080.22;4938530;28;20661;-73
2022/01/14 05:07:44;;;;;;;3.20;3.10;;;;;;;-6.16;90.77;93086.03;4939995;28;20241;-73
2022/01/14 05:10:22;;;;;;;3.30;3.10;;;;;;;-6.21;90.94;93080.16;4940024;28;20646;-73
2022/01/14 05:12:49;;;;;;;3.20;3.10;;;;;;;-6.26;91.88;93074.28;4940477;28;20641;-73
2022/01/14 05:15:19;;;;;;;4.33;3.00;;;;;;;-6.29;91.81;93084.88;4940526;28;20200;-73
2022/01/14 05:17:47;;;;;;;8.17;7.50;;;;;;;-6.42;91.77;93082.88;4940081;28;20605;-73
2022/01/14 05:20:15;;;;;;;13.47;10.23;;;;;;;-6.41;92.67;93094.34;4940327;28;20558;-73
2022/01/14 05:22:43;;;;;;;14.00;5.93;;;;;;;-6.50;92.91;93089.19;4940433;28;20608;-73
2022/01/14 05:25:13;;;;;;;5.63;5.00;;;;;;;-6.42;92.43;93093.53;4939835;28;20590;-73
2022/01/14 05:27:41;;;;;;;6.70;5.77;;;;;;;-6.35;91.89;93094.53;4940265;28;20268;-73
2022/01/14 05:30:11;;;;;;;4.00;3.90;;;;;;;-6.47;92.45;93085.19;4939593;28;20614;-73
2022/01/14 05:32:46;;;;;;;12.03;5.67;;;;;;;-6.44;92.77;93082.00;4937332;28;20703;-73
2022/01/14 05:35:16;;;;;;;4.77;4.10;;;;;;;-6.34;93.06;93084.75;4931653;28;20578;-73
2022/01/14 05:37:44;;;;;;;4.73;4.43;;;;;;;-6.10;91.29;93084.56;4936839;28;20275;-73
2022/01/14 05:40:14;;;;;;;8.13;4.23;;;;;;;-5.97;90.64;93085.72;4938522;28;20278;-75
2022/01/14 05:42:42;;;;;;;5.47;4.23;;;;;;;-6.03;90.40;93079.03;4939830;28;20613;-74
2022/01/14 05:45:12;;;;;;;5.37;4.93;;;;;;;-6.08;90.53;93073.13;4934053;28;20666;-75
2022/01/14 05:47:41;;;;;;;9.50;6.33;;;;;;;-6.10;90.94;93066.53;4935856;28;20605;-74
2022/01/14 05:50:12;;;;;;;6.70;6.20;;;;;;;-6.17;90.85;93064.69;4935972;28;20603;-75
2022/01/14 05:52:41;;;;;;;7.67;6.17;;;;;;;-6.14;90.79;93077.06;4937539;28;20599;-75
2022/01/14 05:55:10;;;;;;;10.87;6.30;;;;;;;-6.31;91.81;93074.19;4934788;28;20208;-74
2022/01/14 05:57:38;;;;;;;16.03;7.43;;;;;;;-6.30;92.57;93075.81;4935369;28;20630;-75
2022/01/14 06:00:07;;;;;;;7.57;7.17;;;;;;;-6.38;93.34;93060.88;4934310;28;20617;-75
2022/01/14 06:02:35;;;;;;;7.63;4.97;;;;;;;-6.29;93.49;93075.03;4937824;28;20602;-75
2022/01/14 06:05:04;;;;;;;15.97;7.57;;;;;;;-6.23;93.75;93085.03;4937471;28;20552;-72
2022/01/14 06:07:31;;;;;;;11.23;9.27;;;;;;;-6.36;93.39;93061.75;4935738;28;20563;-73
2022/01/14 06:09:58;;;;;;;8.87;8.40;;;;;;;-6.24;93.37;93087.44;4937833;28;20605;-74
2022/01/14 06:12:25;;;;;;;7.83;5.90;;;;;;;-6.25;93.82;93071.84;4936407;28;20217;-73
2022/01/14 06:14:53;;;;;;;12.07;9.57;;;;;;;-6.25;93.69;93066.94;4940322;28;20621;-73
2022/01/14 06:17:20;;;;;;;13.03;8.70;;;;;;;-6.24;92.93;93077.59;4937733;28;20209;-74
2022/01/14 06:19:47;;;;;;;6.30;5.83;;;;;;;-6.29;93.51;93075.03;4935576;28;20668;-74
2022/01/14 06:22:16;;;;;;;7.83;7.23;;;;;;;-6.23;92.16;93067.81;4934749;28;20585;-72
2022/01/14 06:24:43;;;;;;;5.90;5.47;;;;;;;-6.31;92.84;93047.94;4936954;28;20571;-76
2022/01/14 06:27:11;;;;;;;11.20;6.73;;;;;;;-6.27;93.22;93024.31;4934150;28;20233;-74
2022/01/14 06:29:38;;;;;;;23.10;13.70;;;;;;;-6.18;92.88;93049.09;4936524;28;20201;-73
2022/01/14 06:32:06;;;;;;;13.40;12.27;;;;;;;-6.15;92.90;93043.44;4937163;28;20679;-73
2022/01/14 06:34:33;;;;;;;14.93;12.27;;;;;;;-6.26;93.33;93048.09;4936166;28;20204;-73
2022/01/14 06:37:00;;;;;;;14.97;9.83;;;;;;;-6.35;93.64;93026.56;4936500;28;20628;-73
2022/01/14 06:39:29;;;;;;;30.60;9.70;;;;;;;-6.12;93.83;93023.84;4945023;28;20505;-74
2022/01/14 06:41:56;;;;;;;15.97;13.30;;;;;;;-6.12;93.45;93027.13;4940525;28;20561;-74
2022/01/14 06:44:24;;;;;;;7.87;7.17;;;;;;;-6.20;93.48;93020.38;4933632;28;20245;-73
2022/01/14 06:46:51;;;;;;;6.90;6.33;;;;;;;-6.06;93.47;93032.22;4934877;28;20228;-74
2022/01/14 06:49:18;;;;;;;18.63;5.63;;;;;;;-6.45;93.89;92969.75;4935845;28;20529;-74
2022/01/14 06:51:48;;;;;;;11.77;10.17;;;;;;;-5.98;93.46;93017.66;4934409;28;20632;-74
2022/01/14 06:54:16;;;;;;;9.50;8.77;;;;;;;-5.90;93.44;93013.75;4935884;28;20579;-74
2022/01/14 06:56:45;;;;;;;6.97;6.57;;;;;;;-5.77;92.64;93008.31;4931190;28;20481;-73
2022/01/14 06:59:12;;;;;;;14.67;7.17;;;;;;;-5.64;91.49;93031.56;4930966;28;20485;-73
2022/01/14 07:01:39;;;;;;;7.40;6.90;;;;;;;-5.79;92.08;93011.50;4934795;28;20619;-70
2022/01/14 07:04:07;;;;;;;3.00;2.90;;;;;;;-5.81;92.65;92991.81;4932793;28;20227;-75
2022/01/14 07:06:35;;;;;;;5.73;5.43;;;;;;;-5.69;92.79;93011.75;4933175;28;20680;-72
2022/01/14 07:09:03;;;;;;;6.53;6.13;;;;;;;-5.61;92.61;93014.41;4934093;28;20644;-71
2022/01/14 07:11:37;;;;;;;8.47;5.43;;;;;;;-5.62;92.48;93011.13;4934038;28;20621;-73
2022/01/14 07:14:07;;;;;;;7.47;5.00;;;;;;;-5.54;91.97;93026.06;4933000;28;20490;-72
2022/01/14 07:16:35;;;;;;;3.70;3.50;;;;;;;-5.53;92.41;93015.44;4932822;28;20579;-72
2022/01/14 07:19:03;;;;;;;3.00;2.80;;;;;;;-5.52;91.39;93014.63;4941173;28;20528;-72
2022/01/14 07:21:33;;;;;;;4.13;3.80;;;;;;;-5.47;92.18;93022.97;4932765;28;20533;-71
2022/01/14 07:24:00;;;;;;;3.93;2.23;;;;;;;-5.55;92.21;93019.47;4935959;28;20228;-71
2022/01/14 07:26:27;;;;;;;3.40;3.17;;;;;;;-5.48;92.69;93017.19;4935347;28;20645;-72
2022/01/14 07:28:54;;;;;;;2.53;2.50;;;;;;;-5.50;92.05;93001.56;4931946;28;20614;-72
2022/01/14 07:31:23;;;;;;;4.27;4.07;;;;;;;-5.41;92.19;92997.66;4934381;28;20490;-72
2022/01/14 07:33:50;;;;;;;3.50;3.40;;;;;;;-5.34;91.62;93011.72;4932865;28;20548;-74
2022/01/14 07:36:18;;;;;;;3.10;3.00;;;;;;;-5.21;92.43;93009.59;4935449;28;20605;-73
2022/01/14 07:38:45;;;;;;;3.80;3.67;;;;;;;-4.99;92.67;93010.03;4932985;28;20605;-72
2022/01/14 07:41:12;;;;;;;8.33;7.80;;;;;;;-4.85;93.14;92989.84;4931319;28;20479;-72
2022/01/14 07:43:41;;;;;;;3.80;3.50;;;;;;;-4.74;93.29;92982.66;4934754;28;20197;-72
2022/01/14 07:46:08;;;;;;;4.33;4.03;;;;;;;-4.64;92.71;92980.38;4935092;28;20231;-73
2022/01/14 07:48:36;;;;;;;7.57;4.50;;;;;;;-4.47;92.91;92968.38;4934115;28;20204;-73
2022/01/14 07:51:04;;;;;;;2.20;2.13;;;;;;;-4.33;92.68;92974.38;4934292;28;20612;-72
2022/01/14 07:53:31;;;;;;;4.17;3.97;;;;;;;-4.21;92.59;92957.34;4931577;28;20667;-73
2022/01/14 07:55:59;;;;;;;4.97;4.77;;;;;;;-3.97;92.83;92949.53;4933050;28;20518;-73
2022/01/14 07:58:26;;;;;;;6.90;6.37;;;;;;;-3.77;92.49;92945.72;4934049;28;20208;-73
2022/01/14 08:00:53;;;;;;;6.43;6.03;;;;;;;-3.63;92.18;92941.00;4932520;28;20625;-74
2022/01/14 08:03:20;;;;;;;5.80;5.33;;;;;;;-3.46;91.48;92939.63;4936659;28;20561;-73
2022/01/14 08:05:50;;;;;;;5.70;5.30;;;;;;;-3.32;91.09;92929.13;4935109;28;20656;-73
2022/01/14 08:08:17;;;;;;;8.27;6.53;;;;;;;-3.17;90.97;92941.66;4932490;28;20639;-73
2022/01/14 08:10:45;;;;;;;5.23;4.93;;;;;;;-2.96;90.51;92942.75;4932107;28;20204;-73
2022/01/14 08:13:12;;;;;;;6.63;6.23;;;;;;;-2.84;90.24;92946.19;4931720;28;20586;-72
2022/01/14 08:15:39;;;;;;;9.20;8.70;;;;;;;-2.75;88.46;92942.19;4932167;28;20600;-72
2022/01/14 08:18:07;;;;;;;5.97;5.53;;;;;;;-2.73;87.78;92945.50;4930606;28;20212;-72
2022/01/14 08:20:34;;;;;;;4.43;4.23;;;;;;;-2.72;88.80;92959.53;4931468;28;20200;-71
2022/01/14 08:23:03;;;;;;;3.57;3.37;;;;;;;-2.64;88.74;92950.56;4935010;28;20644;-71
2022/01/14 08:25:30;;;;;;;3.73;3.50;;;;;;;-2.61;88.08;92950.59;4936731;28;20668;-71
2022/01/14 08:27:58;;;;;;;7.37;6.93;;;;;;;-2.55;87.92;92938.31;4935088;28;20531;-72
2022/01/14 08:30:25;;;;;;;15.17;12.30;;;;;;;-2.43;87.66;92925.25;4936665;28;20566;-73
2022/01/14 08:32:52;;;;;;;6.07;4.97;;;;;;;-2.32;86.88;92930.31;4938094;28;20555;-74
2022/01/14 08:35:20;;;;;;;2.50;2.40;;;;;;;-2.21;84.55;92941.13;4938683;28;20672;-72
2022/01/14 08:37:47;;;;;;;4.00;3.87;;;;;;;-2.14;84.54;92923.88;4937132;28;20659;-73
2022/01/14 08:40:15;;;;;;;4.73;3.10;;;;;;;-1.99;84.13;92922.38;4935462;28;20696;-73
2022/01/14 08:42:45;;;;;;;4.17;3.97;;;;;;;-1.94;84.20;92916.63;4940216;28;20600;-73
2022/01/14 08:45:14;;;;;;;4.57;4.37;;;;;;;-1.90;83.00;92913.34;4940756;28;20601;-72
2022/01/14 08:47:42;;;;;;;5.63;4.57;;;;;;;-1.78;82.57;92910.97;4937336;28;20609;-72
2022/01/14 08:50:09;;;;;;;6.03;4.30;;;;;;;-1.74;82.59;92902.75;4932882;28;20466;-73
2022/01/14 08:52:37;;;;;;;5.90;5.43;;;;;;;-1.63;82.90;92902.03;4934883;28;20655;-74
2022/01/14 08:55:05;;;;;;;6.27;5.77;;;;;;;-1.56;82.03;92908.66;4940117;28;20617;-73
2022/01/14 08:57:33;;;;;;;6.17;5.87;;;;;;;-1.43;82.58;92900.50;4937404;28;20216;-73
2022/01/14 09:00:00;;;;;;;10.20;6.33;;;;;;;-1.35;82.12;92886.50;4936476;28;20348;-73
2022/01/14 09:02:28;;;;;;;8.57;7.13;;;;;;;-1.21;81.50;92899.81;4938188;28;20630;-72
2022/01/14 09:04:55;;;;;;;16.83;10.10;;;;;;;-1.09;80.91;92904.00;4933558;28;20594;-72
2022/01/14 09:07:23;;;;;;;12.47;10.00;;;;;;;-0.97;81.08;92890.03;4935918;28;20652;-74
2022/01/14 09:09:51;;;;;;;9.23;8.60;;;;;;;-0.88;81.41;92881.78;4937449;28;20551;-74
2022/01/14 09:12:18;;;;;;;13.43;9.23;;;;;;;-0.72;81.31;92876.03;4939509;28;20638;-73
2022/01/14 09:14:47;;;;;;;12.93;9.87;;;;;;;-0.62;81.16;92869.47;4936633;28;20624;-71
2022/01/14 09:17:16;;;;;;;13.70;9.73;;;;;;;-0.44;82.19;92857.09;4937159;28;20657;-71
2022/01/14 09:20:03;;;;;;;13.97;11.63;;;;;;;-0.19;81.34;92862.94;4934803;28;20561;-72
2022/01/14 09:22:35;;;;;;;32.23;14.37;;;;;;;-0.01;81.04;92866.28;4933227;28;20539;-71
2022/01/14 09:25:05;;;;;;;15.83;14.33;;;;;;;0.15;80.15;92856.34;4937181;28;20597;-71
2022/01/14 09:27:33;;;;;;;34.10;17.50;;;;;;;0.28;79.37;92843.91;4931561;28;20664;-71
2022/01/14 09:30:04;;;;;;;10.67;9.83;;;;;;;0.45;79.20;92833.97;4931926;28;20504;-72
2022/01/14 09:32:31;;;;;;;10.67;9.63;;;;;;;0.53;78.71;92817.38;4936980;28;20505;-74
2022/01/14 09:35:02;;;;;;;8.90;7.73;;;;;;;0.72;79.65;92816.50;4935888;28;20605;-73
2022/01/14 09:37:30;;;;;;;30.23;20.70;;;;;;;0.87;79.65;92812.28;4932353;28;20602;-73
2022/01/14 09:39:57;;;;;;;15.57;12.63;;;;;;;1.01;79.67;92803.13;4928795;28;20483;-72
2022/01/14 09:45:12;;;;;;;26.37;13.27;;;;;;;1.43;78.61;92792.13;4933551;28;20485;-73
2022/01/14 09:47:40;;;;;;;39.37;19.90;;;;;;;1.60;78.43;92793.69;4939306;28;20697;-73
2022/01/14 09:50:08;;;;;;;25.37;16.27;;;;;;;1.76;78.38;92789.41;4933862;28;20286;-73
2022/01/14 09:52:36;;;;;;;26.57;17.00;;;;;;;1.92;78.04;92762.72;4932485;28;20294;-73
2022/01/14 09:55:03;;;;;;;25.90;16.83;;;;;;;2.16;77.14;92767.50;4934665;28;20665;-72
2022/01/14 09:57:30;;;;;;;25.40;17.87;;;;;;;2.31;77.37;92764.84;4932797;28;20215;-73
2022/01/14 09:59:58;;;;;;;30.40;16.23;;;;;;;2.39;76.63;92763.13;4933978;28;20447;-73
2022/01/14 10:02:35;;;;;;;37.50;16.87;;;;;;;2.63;77.70;92751.25;4937145;28;20496;-73
2022/01/14 10:05:04;;;;;;;18.90;12.17;;;;;;;2.62;77.71;92737.97;4930749;28;20595;-73
2022/01/14 10:07:32;;;;;;;22.17;12.23;;;;;;;2.61;77.64;92736.31;4934538;28;20228;-72
2022/01/14 10:10:00;;;;;;;18.33;10.90;;;;;;;2.59;77.17;92744.66;4938924;28;20573;-72
2022/01/14 10:12:33;;;;;;;15.30;8.67;;;;;;;2.70;78.00;92737.88;4940439;28;20217;-73
2022/01/14 10:15:02;;;;;;;9.93;8.93;;;;;;;3.26;76.83;92743.00;4935966;28;20507;-73
2022/01/14 10:27:56;;;;;;;29.77;16.23;;;;;;;8.24;55.65;92799.53;4909174;28;20553;-71
2022/01/14 10:30:27;;;;;;;17.10;10.43;;;;;;;8.82;54.72;92787.63;4890955;28;20202;-72
2022/01/14 10:32:56;;;;;;;18.77;12.13;;;;;;;9.66;52.77;92793.09;4896526;28;20598;-72
2022/01/14 10:35:26;;;;;;;19.90;10.87;;;;;;;10.04;50.38;92786.59;4895498;28;20583;-72
2022/01/14 10:37:56;;;;;;;36.00;17.23;;;;;;;10.18;49.85;92773.50;4896881;28;20615;-72
2022/01/14 10:40:28;;;;;;;28.83;14.47;;;;;;;10.81;48.65;92787.81;4896653;28;20647;-73
2022/01/14 10:43:04;;;;;;;17.90;10.97;;;;;;;11.85;46.67;92784.19;4892066;28;20491;-72
2022/01/14 10:45:32;;;;;;;40.17;15.30;;;;;;;12.28;45.28;92758.53;4887426;28;20198;-71
2022/01/14 10:48:01;;;;;;;46.55;18.05;;;;;;;12.48;44.78;92784.66;4891659;28;20598;-72
2022/01/14 10:50:34;;;;;;;83.37;28.37;;;;;;;12.49;44.35;92773.63;4895394;28;20507;-71
2022/01/14 10:53:02;;;;;;;46.55;22.10;;;;;;;12.34;44.69;92777.69;4894779;28;20599;-71
2022/01/14 10:55:34;;;;;;;51.07;21.37;;;;;;;12.16;45.08;92755.75;4895249;28;20548;-72
2022/01/14 10:58:04;;;;;;;75.60;31.23;;;;;;;11.93;45.69;92754.28;4897262;28;20571;-72
2022/01/14 11:00:40;;;;;;;68.47;27.37;;;;;;;12.14;45.92;92733.03;4899272;28;20609;-72
2022/01/14 11:03:07;;;;;;;81.88;31.60;;;;;;;12.62;45.04;92729.88;4878397;29;20602;-72
2022/01/14 11:05:35;;;;;;;36.05;18.45;;;;;;;13.29;44.31;92727.34;4896064;28;20552;-72
2022/01/14 11:08:03;;;;;;;47.35;18.20;;;;;;;13.58;43.44;92718.22;4898005;28;20594;-72
2022/01/14 11:10:34;;;;;;;41.80;18.88;;;;;;;13.67;43.29;92706.78;4898552;28;20567;-72
2022/01/14 11:13:06;;;;;;;89.93;32.15;;;;;;;14.00;43.04;92720.22;4900529;28;20304;-72
2022/01/14 11:15:35;;;;;;;67.70;25.10;;;;;;;14.03;43.13;92709.88;4896175;28;20194;-73
2022/01/14 11:18:05;;;;;;;87.72;31.38;;;;;;;14.50;42.34;92707.28;4899098;28;20516;-72
2022/01/14 11:23:14;;;;;;;146.48;42.38;;;;;;;15.01;41.31;92712.03;4898818;28;20567;-73
2022/01/14 11:23:21;;;;;;;75.15;27.08;;;;;;;15.40;39.69;92713.97;4897667;28;20464;-73
2022/01/14 11:25:56;;;;;;;95.38;36.88;;;;;;;15.27;39.90;92707.06;4903496;28;20509;-73
2022/01/14 11:28:30;;;;;;;107.65;33.50;;;;;;;14.56;41.23;92690.88;4926913;28;20249;-73
2022/01/14 11:30:58;;;;;;;144.82;45.55;;;;;;;14.11;42.75;92661.19;4955569;28;20612;-73
2022/01/14 11:33:43;;;;;;;120.90;40.42;;;;;;;14.18;43.14;92656.59;4956562;28;20219;-73
2022/01/14 11:36:11;;;;;;;51.30;21.35;;;;;;;14.65;41.82;92656.47;4956762;28;20282;-73
2022/01/14 11:38:42;;;;;;;39.70;17.88;;;;;;;15.08;41.54;92659.91;4956794;28;20523;-73
2022/01/14 11:41:13;;;;;;;40.90;17.38;;;;;;;15.44;40.30;92659.41;4946338;28;20565;-73
2022/01/14 11:43:49;;;;;;;35.58;17.55;;;;;;;14.90;40.23;92660.06;4936647;28;20645;-72
2022/01/14 11:46:46;;;;;;;41.00;19.30;;;;;;;15.29;40.33;92654.34;4935636;28;20223;-71
2022/01/14 11:49:38;;;;;;;34.53;17.25;;;;;;;15.49;39.52;92662.50;4935716;28;20585;-71
2022/01/14 11:52:08;;;;;;;43.28;19.38;;;;;;;15.75;39.06;92657.50;4936623;28;20584;-71
2022/01/14 11:54:44;;;;;;;32.80;15.93;;;;;;;16.29;38.06;92659.19;4931812;28;20555;-71
2022/01/14 11:57:14;;;;;;;18.98;10.70;;;;;;;16.61;37.70;92659.72;4931683;28;20561;-71
2022/01/14 11:59:47;;;;;;;24.20;12.80;;;;;;;16.82;37.13;92660.88;4934034;28;20579;-73
2022/01/14 12:02:44;;;;;;;18.83;11.38;;;;;;;17.06;36.48;92668.66;4930376;28;20201;-72
2022/01/14 12:05:21;;;;;;;13.55;9.38;;;;;;;16.89;37.01;92657.00;4928821;28;20597;-73